sensor_id;sensor_type;location;lat;lon;timestamp;P1;durP1;ratioP1;P2;durP2;ratioP2
14933;SDS011;7560;51.364;12.384;2023-02-28T00:04:59;4.00;;;3.08;;
14933;SDS011;7560;51.364;12.384;2023-02-28T00:10:02;4.85;;;3.05;;
14933;SDS011;7560;51.364;12.384;2023-02-28T00:15:06;3.78;;;2.80;;
14933;SDS011;7560;51.364;12.384;2023-02-28T00:20:10;5.03;;;2.83;;
14933;SDS011;7560;51.364;12.384;2023-02-28T00:25:17;6.00;;;3.55;;
14933;SDS011;7560;51.364;12.384;2023-02-28T00:30:21;5.63;;;3.28;;
14933;SDS011;7560;51.364;12.384;2023-02-28T00:35:24;5.32;;;3.30;;
14933;SDS011;7560;51.364;12.384;2023-02-28T00:40:26;5.35;;;3.88;;
14933;SDS011;7560;51.364;12.384;2023-02-28T00:45:28;6.43;;;3.95;;
14933;SDS011;7560;51.364;12.384;2023-02-28T00:50:30;4.78;;;3.45;;
14933;SDS011;7560;51.364;12.384;2023-02-28T00:55:32;5.38;;;3.50;;
14933;SDS011;7560;51.364;12.384;2023-02-28T01:00:34;5.70;;;3.05;;
14933;SDS011;7560;51.364;12.384;2023-02-28T01:05:35;5.53;;;3.30;;
14933;SDS011;7560;51.364;12.384;2023-02-28T01:10:37;4.55;;;3.00;;
14933;SDS011;7560;51.364;12.384;2023-02-28T01:15:48;5.47;;;3.22;;
14933;SDS011;7560;51.364;12.384;2023-02-28T01:20:53;5.50;;;3.45;;
14933;SDS011;7560;51.364;12.384;2023-02-28T01:25:55;6.03;;;3.22;;
14933;SDS011;7560;51.364;12.384;2023-02-28T01:30:56;4.68;;;3.10;;
14933;SDS011;7560;51.364;12.384;2023-02-28T01:35:59;4.25;;;2.83;;
14933;SDS011;7560;51.364;12.384;2023-02-28T01:41:14;6.00;;;3.25;;
14933;SDS011;7560;51.364;12.384;2023-02-28T01:46:19;4.95;;;3.15;;
14933;SDS011;7560;51.364;12.384;2023-02-28T01:51:22;3.85;;;2.50;;
14933;SDS011;7560;51.364;12.384;2023-02-28T01:56:33;4.85;;;3.10;;
14933;SDS011;7560;51.364;12.384;2023-02-28T02:01:37;4.95;;;2.95;;
14933;SDS011;7560;51.364;12.384;2023-02-28T02:06:44;4.80;;;2.92;;
14933;SDS011;7560;51.364;12.384;2023-02-28T02:11:48;5.28;;;3.22;;
14933;SDS011;7560;51.364;12.384;2023-02-28T02:33:16;4.85;;;2.97;;
14933;SDS011;7560;51.364;12.384;2023-02-28T02:38:53;4.57;;;2.97;;
14933;SDS011;7560;51.364;12.384;2023-02-28T02:44:21;6.70;;;3.30;;
14933;SDS011;7560;51.364;12.384;2023-02-28T02:49:29;4.25;;;3.13;;
14933;SDS011;7560;51.364;12.384;2023-02-28T02:54:34;3.75;;;2.90;;
14933;SDS011;7560;51.364;12.384;2023-02-28T02:59:41;3.58;;;3.05;;
14933;SDS011;7560;51.364;12.384;2023-02-28T03:04:45;5.70;;;3.25;;
14933;SDS011;7560;51.364;12.384;2023-02-28T03:10:02;4.15;;;2.80;;
14933;SDS011;7560;51.364;12.384;2023-02-28T03:25:29;7.28;;;3.30;;
14933;SDS011;7560;51.364;12.384;2023-02-28T03:30:52;5.43;;;3.40;;
14933;SDS011;7560;51.364;12.384;2023-02-28T03:36:04;3.78;;;2.97;;
14933;SDS011;7560;51.364;12.384;2023-02-28T03:41:29;5.75;;;2.97;;
14933;SDS011;7560;51.364;12.384;2023-02-28T03:46:38;5.50;;;3.22;;
14933;SDS011;7560;51.364;12.384;2023-02-28T03:51:46;7.57;;;3.88;;
14933;SDS011;7560;51.364;12.384;2023-02-28T03:56:55;4.40;;;3.20;;
14933;SDS011;7560;51.364;12.384;2023-02-28T04:02:04;6.13;;;3.90;;
14933;SDS011;7560;51.364;12.384;2023-02-28T04:07:07;6.00;;;3.22;;
14933;SDS011;7560;51.364;12.384;2023-02-28T04:12:10;6.07;;;3.97;;
14933;SDS011;7560;51.364;12.384;2023-02-28T04:17:12;5.50;;;3.72;;
14933;SDS011;7560;51.364;12.384;2023-02-28T04:22:14;7.88;;;3.42;;
14933;SDS011;7560;51.364;12.384;2023-02-28T04:27:16;5.60;;;3.22;;
14933;SDS011;7560;51.364;12.384;2023-02-28T04:32:18;5.93;;;3.60;;
14933;SDS011;7560;51.364;12.384;2023-02-28T04:37:20;6.43;;;3.67;;
14933;SDS011;7560;51.364;12.384;2023-02-28T04:42:21;6.50;;;3.50;;
14933;SDS011;7560;51.364;12.384;2023-02-28T04:47:23;7.40;;;3.67;;
14933;SDS011;7560;51.364;12.384;2023-02-28T04:52:26;6.75;;;3.55;;
14933;SDS011;7560;51.364;12.384;2023-02-28T04:57:28;5.78;;;3.65;;
14933;SDS011;7560;51.364;12.384;2023-02-28T05:02:31;6.45;;;3.38;;
14933;SDS011;7560;51.364;12.384;2023-02-28T05:07:35;5.43;;;3.25;;
14933;SDS011;7560;51.364;12.384;2023-02-28T05:12:37;7.30;;;3.80;;
14933;SDS011;7560;51.364;12.384;2023-02-28T05:17:40;6.97;;;3.50;;
14933;SDS011;7560;51.364;12.384;2023-02-28T05:22:42;10.38;;;5.57;;
14933;SDS011;7560;51.364;12.384;2023-02-28T05:27:44;5.28;;;3.78;;
14933;SDS011;7560;51.364;12.384;2023-02-28T05:32:49;6.88;;;4.03;;
14933;SDS011;7560;51.364;12.384;2023-02-28T05:37:52;6.78;;;4.30;;
14933;SDS011;7560;51.364;12.384;2023-02-28T05:42:54;8.38;;;4.35;;
14933;SDS011;7560;51.364;12.384;2023-02-28T05:47:56;8.00;;;5.47;;
14933;SDS011;7560;51.364;12.384;2023-02-28T05:52:58;7.43;;;4.40;;
14933;SDS011;7560;51.364;12.384;2023-02-28T05:58:00;8.40;;;4.25;;
14933;SDS011;7560;51.364;12.384;2023-02-28T06:03:02;8.55;;;4.95;;
14933;SDS011;7560;51.364;12.384;2023-02-28T06:08:05;7.93;;;4.35;;
14933;SDS011;7560;51.364;12.384;2023-02-28T06:13:08;7.57;;;4.80;;
14933;SDS011;7560;51.364;12.384;2023-02-28T06:18:10;7.40;;;4.03;;
14933;SDS011;7560;51.364;12.384;2023-02-28T06:23:12;9.27;;;4.93;;
14933;SDS011;7560;51.364;12.384;2023-02-28T06:28:13;7.90;;;4.88;;
14933;SDS011;7560;51.364;12.384;2023-02-28T06:33:15;9.25;;;4.70;;
14933;SDS011;7560;51.364;12.384;2023-02-28T06:38:17;14.77;;;6.03;;
14933;SDS011;7560;51.364;12.384;2023-02-28T06:43:19;11.10;;;5.68;;
14933;SDS011;7560;51.364;12.384;2023-02-28T06:48:21;10.20;;;5.25;;
14933;SDS011;7560;51.364;12.384;2023-02-28T06:53:24;11.15;;;5.40;;
14933;SDS011;7560;51.364;12.384;2023-02-28T06:58:25;9.55;;;5.93;;
14933;SDS011;7560;51.364;12.384;2023-02-28T07:03:27;12.25;;;6.18;;
14933;SDS011;7560;51.364;12.384;2023-02-28T07:08:29;10.07;;;4.93;;
14933;SDS011;7560;51.364;12.384;2023-02-28T07:13:33;8.05;;;5.00;;
14933;SDS011;7560;51.364;12.384;2023-02-28T07:18:36;7.85;;;4.75;;
14933;SDS011;7560;51.364;12.384;2023-02-28T07:23:38;9.63;;;4.68;;
14933;SDS011;7560;51.364;12.384;2023-02-28T07:28:44;7.95;;;4.40;;
14933;SDS011;7560;51.364;12.384;2023-02-28T07:33:48;8.65;;;4.95;;
14933;SDS011;7560;51.364;12.384;2023-02-28T07:38:50;9.82;;;4.60;;
14933;SDS011;7560;51.364;12.384;2023-02-28T07:43:53;9.68;;;4.72;;
14933;SDS011;7560;51.364;12.384;2023-02-28T07:48:56;7.15;;;4.47;;
14933;SDS011;7560;51.364;12.384;2023-02-28T07:54:00;7.72;;;4.78;;
14933;SDS011;7560;51.364;12.384;2023-02-28T07:59:02;10.68;;;4.90;;
14933;SDS011;7560;51.364;12.384;2023-02-28T08:04:04;8.73;;;4.55;;
14933;SDS011;7560;51.364;12.384;2023-02-28T08:09:06;18.73;;;9.35;;
14933;SDS011;7560;51.364;12.384;2023-02-28T08:14:08;10.48;;;4.82;;
14933;SDS011;7560;51.364;12.384;2023-02-28T08:19:09;8.57;;;4.53;;
14933;SDS011;7560;51.364;12.384;2023-02-28T08:24:11;6.95;;;4.18;;
14933;SDS011;7560;51.364;12.384;2023-02-28T08:29:13;7.45;;;4.32;;
14933;SDS011;7560;51.364;12.384;2023-02-28T08:34:15;10.35;;;5.85;;
14933;SDS011;7560;51.364;12.384;2023-02-28T08:39:17;8.73;;;4.35;;
14933;SDS011;7560;51.364;12.384;2023-02-28T08:44:21;7.75;;;3.80;;
14933;SDS011;7560;51.364;12.384;2023-02-28T08:49:22;5.63;;;3.70;;
14933;SDS011;7560;51.364;12.384;2023-02-28T08:54:24;7.05;;;3.92;;
14933;SDS011;7560;51.364;12.384;2023-02-28T08:59:27;9.88;;;4.03;;
14933;SDS011;7560;51.364;12.384;2023-02-28T09:04:30;5.28;;;3.45;;
14933;SDS011;7560;51.364;12.384;2023-02-28T09:09:32;4.93;;;3.47;;
14933;SDS011;7560;51.364;12.384;2023-02-28T09:14:34;5.88;;;3.67;;
14933;SDS011;7560;51.364;12.384;2023-02-28T09:19:35;8.80;;;5.03;;
14933;SDS011;7560;51.364;12.384;2023-02-28T09:24:38;5.50;;;3.83;;
14933;SDS011;7560;51.364;12.384;2023-02-28T09:29:41;6.07;;;3.47;;
14933;SDS011;7560;51.364;12.384;2023-02-28T09:34:43;5.80;;;3.65;;
14933;SDS011;7560;51.364;12.384;2023-02-28T09:39:45;5.95;;;4.13;;
14933;SDS011;7560;51.364;12.384;2023-02-28T09:44:46;5.95;;;3.60;;
14933;SDS011;7560;51.364;12.384;2023-02-28T09:49:49;8.13;;;3.53;;
14933;SDS011;7560;51.364;12.384;2023-02-28T09:54:51;6.13;;;3.65;;
14933;SDS011;7560;51.364;12.384;2023-02-28T10:00:37;4.85;;;3.05;;
14933;SDS011;7560;51.364;12.384;2023-02-28T10:10:45;6.32;;;4.03;;
14933;SDS011;7560;51.364;12.384;2023-02-28T10:15:51;5.43;;;3.78;;
14933;SDS011;7560;51.364;12.384;2023-02-28T10:20:59;4.28;;;3.30;;
14933;SDS011;7560;51.364;12.384;2023-02-28T10:26:12;9.15;;;4.20;;
14933;SDS011;7560;51.364;12.384;2023-02-28T10:31:18;6.88;;;3.80;;
14933;SDS011;7560;51.364;12.384;2023-02-28T10:36:21;5.45;;;3.72;;
14933;SDS011;7560;51.364;12.384;2023-02-28T10:41:27;5.35;;;3.33;;
14933;SDS011;7560;51.364;12.384;2023-02-28T10:46:31;6.07;;;3.92;;
14933;SDS011;7560;51.364;12.384;2023-02-28T10:51:36;7.78;;;4.15;;
14933;SDS011;7560;51.364;12.384;2023-02-28T10:56:40;6.43;;;4.00;;
14933;SDS011;7560;51.364;12.384;2023-02-28T11:01:42;5.80;;;3.83;;
14933;SDS011;7560;51.364;12.384;2023-02-28T11:06:46;7.53;;;4.35;;
14933;SDS011;7560;51.364;12.384;2023-02-28T11:11:49;6.28;;;4.20;;
14933;SDS011;7560;51.364;12.384;2023-02-28T11:16:54;8.73;;;4.78;;
14933;SDS011;7560;51.364;12.384;2023-02-28T11:22:22;6.47;;;4.32;;
14933;SDS011;7560;51.364;12.384;2023-02-28T11:32:31;7.57;;;4.57;;
14933;SDS011;7560;51.364;12.384;2023-02-28T11:37:33;9.50;;;5.28;;
14933;SDS011;7560;51.364;12.384;2023-02-28T11:47:59;6.78;;;4.70;;
14933;SDS011;7560;51.364;12.384;2023-02-28T12:09:55;8.13;;;4.95;;
14933;SDS011;7560;51.364;12.384;2023-02-28T12:30:49;9.70;;;6.20;;
14933;SDS011;7560;51.364;12.384;2023-02-28T12:36:03;11.15;;;6.32;;
14933;SDS011;7560;51.364;12.384;2023-02-28T12:46:32;10.90;;;6.13;;
14933;SDS011;7560;51.364;12.384;2023-02-28T12:51:40;10.18;;;6.43;;
14933;SDS011;7560;51.364;12.384;2023-02-28T13:12:36;10.60;;;6.63;;
14933;SDS011;7560;51.364;12.384;2023-02-28T13:17:54;10.30;;;6.63;;
14933;SDS011;7560;51.364;12.384;2023-02-28T13:22:57;14.10;;;7.75;;
14933;SDS011;7560;51.364;12.384;2023-02-28T13:28:00;11.85;;;6.63;;
14933;SDS011;7560;51.364;12.384;2023-02-28T13:38:32;11.93;;;6.53;;
14933;SDS011;7560;51.364;12.384;2023-02-28T14:04:59;8.18;;;6.20;;
14933;SDS011;7560;51.364;12.384;2023-02-28T14:10:06;9.30;;;5.97;;
14933;SDS011;7560;51.364;12.384;2023-02-28T14:15:30;12.32;;;6.57;;
14933;SDS011;7560;51.364;12.384;2023-02-28T14:21:14;10.30;;;6.53;;
14933;SDS011;7560;51.364;12.384;2023-02-28T14:37:18;9.75;;;6.20;;
14933;SDS011;7560;51.364;12.384;2023-02-28T14:42:29;9.63;;;6.68;;
14933;SDS011;7560;51.364;12.384;2023-02-28T14:47:36;10.15;;;6.65;;
14933;SDS011;7560;51.364;12.384;2023-02-28T14:52:38;10.90;;;6.30;;
14933;SDS011;7560;51.364;12.384;2023-02-28T14:57:41;11.60;;;7.75;;
14933;SDS011;7560;51.364;12.384;2023-02-28T15:02:52;10.50;;;6.70;;
14933;SDS011;7560;51.364;12.384;2023-02-28T15:08:13;10.07;;;6.55;;
14933;SDS011;7560;51.364;12.384;2023-02-28T15:13:16;10.68;;;6.65;;
14933;SDS011;7560;51.364;12.384;2023-02-28T15:23:48;12.40;;;8.30;;
14933;SDS011;7560;51.364;12.384;2023-02-28T15:29:12;12.07;;;7.20;;
14933;SDS011;7560;51.364;12.384;2023-02-28T15:34:24;8.38;;;6.55;;
14933;SDS011;7560;51.364;12.384;2023-02-28T15:39:43;14.70;;;8.38;;
14933;SDS011;7560;51.364;12.384;2023-02-28T15:44:46;9.75;;;6.35;;
14933;SDS011;7560;51.364;12.384;2023-02-28T15:50:05;12.02;;;7.70;;
14933;SDS011;7560;51.364;12.384;2023-02-28T16:00:15;10.23;;;7.20;;
14933;SDS011;7560;51.364;12.384;2023-02-28T16:05:24;9.50;;;6.97;;
14933;SDS011;7560;51.364;12.384;2023-02-28T16:10:32;10.50;;;7.22;;
14933;SDS011;7560;51.364;12.384;2023-02-28T16:15:35;10.95;;;6.47;;
14933;SDS011;7560;51.364;12.384;2023-02-28T16:20:43;13.38;;;6.47;;
14933;SDS011;7560;51.364;12.384;2023-02-28T16:25:46;10.40;;;6.60;;
14933;SDS011;7560;51.364;12.384;2023-02-28T16:30:48;11.63;;;7.32;;
14933;SDS011;7560;51.364;12.384;2023-02-28T16:35:53;11.75;;;7.22;;
14933;SDS011;7560;51.364;12.384;2023-02-28T16:40:55;11.50;;;7.85;;
14933;SDS011;7560;51.364;12.384;2023-02-28T16:46:02;12.90;;;7.70;;
14933;SDS011;7560;51.364;12.384;2023-02-28T16:51:04;13.05;;;7.55;;
14933;SDS011;7560;51.364;12.384;2023-02-28T16:56:08;12.82;;;7.72;;
14933;SDS011;7560;51.364;12.384;2023-02-28T17:01:23;11.80;;;7.43;;
14933;SDS011;7560;51.364;12.384;2023-02-28T17:06:26;10.85;;;7.22;;
14933;SDS011;7560;51.364;12.384;2023-02-28T17:11:29;13.75;;;8.00;;
14933;SDS011;7560;51.364;12.384;2023-02-28T17:16:32;10.70;;;7.95;;
14933;SDS011;7560;51.364;12.384;2023-02-28T17:21:36;13.88;;;8.25;;
14933;SDS011;7560;51.364;12.384;2023-02-28T17:26:39;15.13;;;9.57;;
14933;SDS011;7560;51.364;12.384;2023-02-28T17:31:42;15.60;;;9.65;;
14933;SDS011;7560;51.364;12.384;2023-02-28T17:36:44;17.02;;;10.70;;
14933;SDS011;7560;51.364;12.384;2023-02-28T17:41:50;52.17;;;20.85;;
14933;SDS011;7560;51.364;12.384;2023-02-28T17:46:56;19.33;;;10.40;;
14933;SDS011;7560;51.364;12.384;2023-02-28T17:51:58;19.13;;;10.95;;
14933;SDS011;7560;51.364;12.384;2023-02-28T17:56:59;13.85;;;9.00;;
14933;SDS011;7560;51.364;12.384;2023-02-28T18:02:02;14.27;;;9.13;;
14933;SDS011;7560;51.364;12.384;2023-02-28T18:07:08;15.93;;;9.30;;
14933;SDS011;7560;51.364;12.384;2023-02-28T18:12:12;17.25;;;10.25;;
14933;SDS011;7560;51.364;12.384;2023-02-28T18:17:14;17.98;;;10.10;;
14933;SDS011;7560;51.364;12.384;2023-02-28T18:22:16;22.05;;;10.80;;
14933;SDS011;7560;51.364;12.384;2023-02-28T18:27:18;21.17;;;11.68;;
14933;SDS011;7560;51.364;12.384;2023-02-28T18:32:20;18.88;;;11.13;;
14933;SDS011;7560;51.364;12.384;2023-02-28T18:37:21;24.70;;;13.15;;
14933;SDS011;7560;51.364;12.384;2023-02-28T18:42:23;20.58;;;11.80;;
14933;SDS011;7560;51.364;12.384;2023-02-28T18:47:25;24.80;;;14.10;;
14933;SDS011;7560;51.364;12.384;2023-02-28T18:52:27;22.70;;;13.80;;
14933;SDS011;7560;51.364;12.384;2023-02-28T18:57:29;23.60;;;13.80;;
14933;SDS011;7560;51.364;12.384;2023-02-28T19:02:31;20.85;;;12.55;;
14933;SDS011;7560;51.364;12.384;2023-02-28T19:07:33;25.58;;;14.68;;
14933;SDS011;7560;51.364;12.384;2023-02-28T19:12:36;23.80;;;13.18;;
14933;SDS011;7560;51.364;12.384;2023-02-28T19:17:38;22.58;;;12.98;;
14933;SDS011;7560;51.364;12.384;2023-02-28T19:22:40;25.13;;;14.20;;
14933;SDS011;7560;51.364;12.384;2023-02-28T19:27:42;22.83;;;12.50;;
14933;SDS011;7560;51.364;12.384;2023-02-28T19:32:46;27.25;;;13.70;;
14933;SDS011;7560;51.364;12.384;2023-02-28T19:37:48;22.88;;;13.38;;
14933;SDS011;7560;51.364;12.384;2023-02-28T19:42:52;23.38;;;13.68;;
14933;SDS011;7560;51.364;12.384;2023-02-28T19:47:55;27.08;;;15.00;;
14933;SDS011;7560;51.364;12.384;2023-02-28T19:52:57;26.40;;;15.70;;
14933;SDS011;7560;51.364;12.384;2023-02-28T19:58:00;24.20;;;14.18;;
14933;SDS011;7560;51.364;12.384;2023-02-28T20:03:02;25.00;;;14.07;;
14933;SDS011;7560;51.364;12.384;2023-02-28T20:08:05;27.60;;;15.65;;
14933;SDS011;7560;51.364;12.384;2023-02-28T20:13:07;30.40;;;15.43;;
14933;SDS011;7560;51.364;12.384;2023-02-28T20:18:09;27.70;;;15.85;;
14933;SDS011;7560;51.364;12.384;2023-02-28T20:23:11;33.28;;;18.77;;
14933;SDS011;7560;51.364;12.384;2023-02-28T20:28:13;34.38;;;17.75;;
14933;SDS011;7560;51.364;12.384;2023-02-28T20:33:16;34.38;;;18.50;;
14933;SDS011;7560;51.364;12.384;2023-02-28T20:38:18;36.15;;;20.55;;
14933;SDS011;7560;51.364;12.384;2023-02-28T20:43:20;38.50;;;22.90;;
14933;SDS011;7560;51.364;12.384;2023-02-28T20:48:24;42.75;;;24.25;;
14933;SDS011;7560;51.364;12.384;2023-02-28T20:53:26;40.40;;;20.60;;
14933;SDS011;7560;51.364;12.384;2023-02-28T20:58:30;37.30;;;20.88;;
14933;SDS011;7560;51.364;12.384;2023-02-28T21:03:34;39.20;;;20.13;;
14933;SDS011;7560;51.364;12.384;2023-02-28T21:08:37;52.53;;;24.13;;
14933;SDS011;7560;51.364;12.384;2023-02-28T21:13:39;43.25;;;21.35;;
14933;SDS011;7560;51.364;12.384;2023-02-28T21:18:42;33.58;;;17.65;;
14933;SDS011;7560;51.364;12.384;2023-02-28T21:23:45;37.60;;;17.75;;
14933;SDS011;7560;51.364;12.384;2023-02-28T21:28:50;40.78;;;20.63;;
14933;SDS011;7560;51.364;12.384;2023-02-28T21:33:55;39.80;;;20.45;;
14933;SDS011;7560;51.364;12.384;2023-02-28T21:39:00;39.90;;;20.92;;
14933;SDS011;7560;51.364;12.384;2023-02-28T21:44:14;31.35;;;17.27;;
14933;SDS011;7560;51.364;12.384;2023-02-28T21:49:19;34.58;;;19.27;;
14933;SDS011;7560;51.364;12.384;2023-02-28T21:54:21;35.92;;;19.70;;
14933;SDS011;7560;51.364;12.384;2023-02-28T21:59:23;40.00;;;19.85;;
14933;SDS011;7560;51.364;12.384;2023-02-28T22:04:25;83.30;;;41.55;;
14933;SDS011;7560;51.364;12.384;2023-02-28T22:09:27;48.70;;;24.67;;
14933;SDS011;7560;51.364;12.384;2023-02-28T22:14:29;35.08;;;18.95;;
14933;SDS011;7560;51.364;12.384;2023-02-28T22:19:31;34.65;;;18.40;;
14933;SDS011;7560;51.364;12.384;2023-02-28T22:24:33;36.92;;;18.13;;
14933;SDS011;7560;51.364;12.384;2023-02-28T22:29:35;37.95;;;18.40;;
14933;SDS011;7560;51.364;12.384;2023-02-28T22:34:36;32.88;;;18.63;;
14933;SDS011;7560;51.364;12.384;2023-02-28T22:39:38;37.78;;;18.55;;
14933;SDS011;7560;51.364;12.384;2023-02-28T22:44:40;34.88;;;17.55;;
14933;SDS011;7560;51.364;12.384;2023-02-28T22:49:42;33.20;;;17.23;;
14933;SDS011;7560;51.364;12.384;2023-02-28T22:54:47;32.03;;;16.83;;
14933;SDS011;7560;51.364;12.384;2023-02-28T22:59:50;34.60;;;17.27;;
14933;SDS011;7560;51.364;12.384;2023-02-28T23:04:53;27.83;;;15.23;;
14933;SDS011;7560;51.364;12.384;2023-02-28T23:09:55;28.77;;;14.52;;
14933;SDS011;7560;51.364;12.384;2023-02-28T23:14:57;27.02;;;14.52;;
14933;SDS011;7560;51.364;12.384;2023-02-28T23:19:59;27.90;;;14.20;;
14933;SDS011;7560;51.364;12.384;2023-02-28T23:25:01;32.83;;;15.43;;
14933;SDS011;7560;51.364;12.384;2023-02-28T23:30:03;27.77;;;13.90;;
14933;SDS011;7560;51.364;12.384;2023-02-28T23:35:05;27.38;;;13.77;;
14933;SDS011;7560;51.364;12.384;2023-02-28T23:40:09;23.33;;;13.27;;
14933;SDS011;7560;51.364;12.384;2023-02-28T23:45:11;27.92;;;13.23;;
14933;SDS011;7560;51.364;12.384;2023-02-28T23:50:13;26.42;;;13.48;;
14933;SDS011;7560;51.364;12.384;2023-02-28T23:55:15;23.88;;;12.63;;
